Time;durP1;ratioP1;P1;durP2;ratioP2;P2;SDS_P1;SDS_P2;PMS_P1;PMS_P2;Temp;Humidity;BMP_temperature;BMP_pressure;BME280_temperature;BME280_humidity;BME280_pressure;Samples;Min_cycle;Max_cycle;Signal;HPM_P1;HPM_P2
2022/01/03 00:00:50;;;;;;;3.25;2.15;;;;;;;10.36;53.59;98969.16;5087479;28;20041;-66
2022/01/03 00:03:22;;;;;;;4.30;2.10;;;;;;;10.36;54.86;98964.72;5087405;28;20216;-67
2022/01/03 00:05:55;;;;;;;5.03;2.75;;;;;;;10.36;54.31;98948.84;5086899;28;20037;-67
2022/01/03 00:08:29;;;;;;;4.55;2.70;;;;;;;10.34;54.22;98944.56;5087254;28;20040;-67
2022/01/03 00:11:02;;;;;;;4.00;2.03;;;;;;;10.35;54.48;98946.28;5087584;28;20036;-67
2022/01/03 00:13:34;;;;;;;3.30;2.08;;;;;;;10.34;54.82;98953.38;5087517;28;20074;-67
2022/01/03 00:16:08;;;;;;;6.25;2.72;;;;;;;10.34;54.72;98950.72;5087167;28;20040;-67
2022/01/03 00:18:41;;;;;;;4.53;2.63;;;;;;;10.37;54.34;98958.47;5087130;28;20044;-68
2022/01/03 00:21:16;;;;;;;5.50;2.70;;;;;;;10.37;54.68;98953.19;5087014;28;20056;-67
2022/01/03 00:23:50;;;;;;;;;;;;;;;10.33;51.87;98951.66;5087812;28;20311;-66
2022/01/03 00:26:25;;;;;;;4.85;1.80;;;;;;;10.34;53.71;98950.72;5087267;28;19916;-67
2022/01/03 00:29:00;;;;;;;5.00;2.47;;;;;;;10.41;53.96;98930.88;5087130;28;20048;-67
2022/01/03 00:31:35;;;;;;;;;;;;;;;10.39;51.83;98932.75;5087624;28;20048;-68
2022/01/03 00:34:09;;;;;;;4.03;2.85;;;;;;;10.41;54.31;98922.06;5087116;28;19916;-67
2022/01/03 00:36:46;;;;;;;4.07;2.47;;;;;;;10.43;53.65;98923.66;5087080;28;20040;-68
2022/01/03 00:39:18;;;;;;;3.40;2.08;;;;;;;10.43;54.37;98920.16;5086700;28;20212;-67
2022/01/03 00:41:51;;;;;;;3.70;2.40;;;;;;;10.43;54.22;98922.81;5086604;28;20315;-68
2022/01/03 00:44:24;;;;;;;3.08;1.98;;;;;;;10.40;53.55;98933.59;5086622;28;20201;-69
2022/01/03 00:46:53;;;;;;;3.78;2.60;;;;;;;10.39;53.79;98940.69;5086208;28;20102;-69
2022/01/03 00:49:21;;;;;;;3.25;2.33;;;;;;;9.81;54.83;98850.69;5086274;28;20060;-67
2022/01/03 00:51:51;;;;;;;4.68;2.13;;;;;;;10.37;54.52;98950.53;5086973;28;20028;-68
2022/01/03 00:54:21;;;;;;;4.78;3.05;;;;;;;10.38;54.45;98948.75;5086682;28;20044;-68
2022/01/03 00:56:54;;;;;;;3.42;2.30;;;;;;;10.38;54.58;98952.25;5086659;28;20032;-68
2022/01/03 00:59:26;;;;;;;4.80;2.60;;;;;;;10.39;53.28;98948.66;5086402;28;20048;-67
2022/01/03 01:02:01;;;;;;;4.03;2.58;;;;;;;10.43;54.12;98955.47;5086545;28;20051;-67
2022/01/03 01:04:33;;;;;;;3.60;2.47;;;;;;;10.43;54.41;98946.66;5086460;28;20041;-67
2022/01/03 01:07:07;;;;;;;5.00;2.40;;;;;;;10.42;54.45;98958.22;5086184;28;20048;-67
2022/01/03 01:09:43;;;;;;;4.38;2.22;;;;;;;10.43;54.29;98951.97;5086083;28;20219;-67
2022/01/03 01:12:15;;;;;;;3.90;2.10;;;;;;;10.40;54.79;98952.16;5086340;28;20059;-66
2022/01/03 01:14:50;;;;;;;8.45;2.53;;;;;;;10.42;54.33;98952.91;5085928;28;20040;-67
2022/01/03 01:17:27;;;;;;;4.10;2.35;;;;;;;10.42;53.38;98951.09;5086333;28;20051;-67
2022/01/03 01:20:00;;;;;;;3.90;2.67;;;;;;;10.41;54.38;98946.75;5086264;28;20040;-67
2022/01/03 01:22:32;;;;;;;5.45;2.45;;;;;;;10.40;54.51;98944.19;5085729;28;20220;-67
2022/01/03 01:27:59;;;;;;;5.07;2.30;;;;;;;10.36;54.55;98951.47;5070135;28;20208;-67
2022/01/03 01:30:33;;;;;;;5.80;2.92;;;;;;;10.32;54.68;98947.31;5085813;28;20055;-67
2022/01/03 01:33:10;;;;;;;4.32;2.85;;;;;;;10.33;54.03;98945.53;5086091;28;20059;-67
2022/01/03 01:35:47;;;;;;;4.75;2.30;;;;;;;10.33;54.08;98940.22;5085762;28;20040;-67
2022/01/03 01:38:24;;;;;;;10.07;3.17;;;;;;;10.34;53.19;98926.03;5085754;28;20044;-68
2022/01/03 01:40:59;;;;;;;4.70;2.53;;;;;;;10.45;53.46;98937.69;5085948;28;20040;-67
2022/01/03 01:43:36;;;;;;;3.85;2.47;;;;;;;10.49;53.10;98938.34;5085697;28;20208;-67
2022/01/03 01:46:10;;;;;;;4.07;2.67;;;;;;;10.53;53.17;98930.09;5085885;28;20040;-67
2022/01/03 01:48:46;;;;;;;5.30;2.88;;;;;;;10.52;52.89;98916.94;5085807;28;20045;-67
2022/01/03 01:51:21;;;;;;;6.03;2.30;;;;;;;10.56;52.94;98910.53;5085545;28;20047;-67
2022/01/03 01:53:55;;;;;;;4.13;2.42;;;;;;;10.59;52.85;98892.63;5085814;28;20051;-66
2022/01/03 01:56:39;;;;;;;6.63;2.50;;;;;;;10.64;51.95;98891.50;5085547;28;20040;-67
2022/01/03 01:59:15;;;;;;;6.18;2.70;;;;;;;10.71;52.46;98864.50;5084979;28;20044;-67
2022/01/03 02:01:50;;;;;;;4.45;2.78;;;;;;;10.81;52.33;98878.06;5085461;28;20047;-67
2022/01/03 02:04:49;;;;;;;6.05;2.45;;;;;;;10.86;50.81;98865.38;5085465;28;20040;-67
2022/01/03 02:07:34;;;;;;;4.95;2.65;;;;;;;10.98;51.10;98855.78;5085684;28;20190;-66
2022/01/03 02:10:09;;;;;;;3.30;2.58;;;;;;;11.01;51.01;98861.72;5085600;28;20051;-67
2022/01/03 02:12:43;;;;;;;5.40;2.30;;;;;;;11.11;50.65;98857.53;5085564;28;20059;-66
2022/01/03 02:15:16;;;;;;;4.50;3.17;;;;;;;11.15;51.02;98848.41;5085575;28;20048;-66
2022/01/03 02:17:50;;;;;;;3.57;2.53;;;;;;;11.20;50.91;98851.63;5085318;28;20040;-66
2022/01/03 02:20:26;;;;;;;5.28;2.33;;;;;;;10.87;50.18;98779.59;5085080;28;20209;-67
2022/01/03 02:22:59;;;;;;;6.60;2.90;;;;;;;11.28;50.14;98853.75;5085257;28;20037;-67
2022/01/03 02:25:31;;;;;;;4.35;2.80;;;;;;;11.32;50.36;98859.72;5085300;28;20048;-71
2022/01/03 02:28:04;;;;;;;3.80;2.28;;;;;;;11.31;49.83;98882.75;5085435;28;20055;-67
2022/01/03 02:30:37;;;;;;;4.18;2.50;;;;;;;11.33;50.09;98880.84;5085491;28;20047;-67
2022/01/03 02:33:09;;;;;;;4.00;2.08;;;;;;;11.37;49.94;98866.44;5085122;28;20040;-67
2022/01/03 02:35:46;;;;;;;5.45;3.72;;;;;;;10.28;50.37;98681.78;5085137;28;20204;-67
2022/01/03 02:38:19;;;;;;;6.50;3.50;;;;;;;11.31;51.10;98864.19;5085068;28;20041;-67
2022/01/03 02:40:51;;;;;;;5.95;3.88;;;;;;;11.31;51.40;98858.03;5085397;28;20041;-67
2022/01/03 02:43:24;;;;;;;5.00;3.05;;;;;;;11.30;50.97;98857.16;5084310;28;20040;-67
2022/01/03 02:45:56;;;;;;;6.55;3.45;;;;;;;11.26;51.58;98860.97;5085289;28;20059;-67
2022/01/03 02:48:29;;;;;;;5.82;3.70;;;;;;;11.20;50.52;98872.84;5085164;28;20040;-67
2022/01/03 02:51:03;;;;;;;5.88;3.47;;;;;;;11.24;50.72;98866.38;5085146;28;20040;-67
2022/01/03 02:53:35;;;;;;;4.45;3.03;;;;;;;11.20;51.02;98856.94;5085103;28;20040;-67
2022/01/03 02:56:08;;;;;;;4.93;2.58;;;;;;;11.23;51.10;98866.47;5085217;28;20197;-67
2022/01/03 02:58:40;;;;;;;4.70;2.40;;;;;;;11.20;50.43;98899.38;5084930;28;20044;-67
2022/01/03 03:01:13;;;;;;;4.20;2.92;;;;;;;11.18;50.86;98850.03;5084869;28;20041;-67
2022/01/03 03:03:47;;;;;;;3.80;2.38;;;;;;;11.19;50.66;98846.41;5085104;28;20048;-67
2022/01/03 03:06:21;;;;;;;6.63;3.00;;;;;;;11.19;51.05;98857.88;5084869;28;20339;-67
2022/01/03 03:08:53;;;;;;;4.90;3.23;;;;;;;11.19;51.83;98862.34;5084044;28;20135;-67
2022/01/03 03:11:26;;;;;;;4.03;2.58;;;;;;;11.09;51.31;98856.78;5086477;28;20040;-67
2022/01/03 03:13:58;;;;;;;4.28;2.83;;;;;;;11.06;51.42;98854.31;5088616;28;20041;-67
2022/01/03 03:16:30;;;;;;;4.05;2.70;;;;;;;11.12;51.75;98861.03;5088616;28;20044;-67
2022/01/03 03:19:03;;;;;;;4.63;3.22;;;;;;;11.06;51.74;98841.06;5088577;28;20041;-67
2022/01/03 03:21:37;;;;;;;4.88;3.47;;;;;;;11.06;51.93;98848.16;5088182;28;20052;-67
2022/01/03 03:24:09;;;;;;;5.33;2.73;;;;;;;11.04;51.56;98840.31;5087740;28;20040;-67
2022/01/03 03:26:42;;;;;;;4.25;2.60;;;;;;;11.04;51.69;98844.75;5088131;28;20040;-68
2022/01/03 03:29:14;;;;;;;4.15;2.65;;;;;;;11.04;51.85;98834.16;5088023;28;20040;-67
2022/01/03 03:31:46;;;;;;;4.47;2.55;;;;;;;11.04;51.84;98836.81;5088330;28;20319;-67
2022/01/03 03:34:19;;;;;;;5.15;2.65;;;;;;;11.01;51.85;98848.47;5087976;28;20052;-67
2022/01/03 03:36:52;;;;;;;3.97;2.53;;;;;;;11.01;51.48;98847.63;5088239;28;20051;-68
2022/01/03 03:39:21;;;;;;;3.95;2.72;;;;;;;11.00;51.54;98845.91;5088214;28;20335;-68
2022/01/03 03:41:51;;;;;;;3.67;2.20;;;;;;;11.00;51.62;98843.25;5088130;28;20036;-67
2022/01/03 03:44:21;;;;;;;4.53;2.20;;;;;;;10.96;51.65;98855.00;5088033;28;20296;-68
2022/01/03 03:46:51;;;;;;;4.00;2.67;;;;;;;10.98;52.00;98855.78;5087782;28;20212;-67
2022/01/03 03:49:21;;;;;;;4.10;2.28;;;;;;;10.97;52.08;98843.47;5087603;28;20327;-68
2022/01/03 03:51:53;;;;;;;4.25;2.58;;;;;;;10.93;51.66;98848.09;5087691;28;20205;-67
2022/01/03 03:54:22;;;;;;;5.25;2.53;;;;;;;10.91;52.17;98865.91;5088489;28;20228;-67
2022/01/03 03:56:52;;;;;;;4.00;2.30;;;;;;;10.88;52.37;98848.41;5087109;28;20041;-67
2022/01/03 03:59:22;;;;;;;4.05;2.65;;;;;;;10.86;52.30;98846.81;5087807;28;20044;-68
2022/01/03 04:01:53;;;;;;;3.90;2.40;;;;;;;10.84;52.50;98846.06;5087777;28;20037;-68
2022/01/03 04:04:23;;;;;;;5.35;2.92;;;;;;;10.81;52.40;98839.16;5087772;28;20063;-67
2022/01/03 04:06:54;;;;;;;9.75;3.17;;;;;;;10.62;52.45;98828.00;5087396;28;20102;-67
2022/01/03 04:09:22;;;;;;;4.05;2.42;;;;;;;10.80;52.71;98836.59;5087503;28;20293;-67
2022/01/03 04:11:53;;;;;;;4.38;2.22;;;;;;;10.77;52.76;98839.41;5087323;28;20297;-67
2022/01/03 04:14:23;;;;;;;4.22;2.80;;;;;;;10.78;52.61;98836.69;5087237;28;20041;-67
2022/01/03 04:16:53;;;;;;;4.35;2.70;;;;;;;10.77;53.31;98839.41;5087212;28;20315;-67
2022/01/03 04:19:23;;;;;;;5.70;2.50;;;;;;;10.74;52.55;98839.59;5087452;28;20048;-67
2022/01/03 04:21:54;;;;;;;3.85;2.72;;;;;;;10.76;52.54;98841.22;5086236;28;20312;-68
2022/01/03 04:24:23;;;;;;;5.38;2.55;;;;;;;10.74;52.58;98837.81;5087071;28;20300;-68
2022/01/03 04:26:53;;;;;;;3.08;2.13;;;;;;;10.71;52.67;98843.31;5087269;28;20028;-67
2022/01/03 04:29:23;;;;;;;4.60;2.42;;;;;;;10.73;52.75;98846.72;5087196;28;20040;-67
2022/01/03 04:31:54;;;;;;;3.95;2.20;;;;;;;10.72;52.97;98836.19;5086828;28;20293;-67
2022/01/03 04:34:24;;;;;;;3.30;2.05;;;;;;;10.73;52.85;98852.00;5087085;28;20041;-67
2022/01/03 04:36:55;;;;;;;3.58;2.35;;;;;;;10.71;52.95;98823.91;5087043;28;20040;-67
2022/01/03 04:39:24;;;;;;;4.80;2.70;;;;;;;9.89;53.07;98709.00;5086967;28;20044;-68
2022/01/03 04:41:54;;;;;;;3.70;2.40;;;;;;;10.67;53.35;98825.03;5086953;28;20047;-67
2022/01/03 04:44:24;;;;;;;3.05;2.17;;;;;;;10.64;53.58;98839.34;5086860;28;20040;-67
2022/01/03 04:46:55;;;;;;;5.70;2.60;;;;;;;10.64;53.60;98843.78;5086866;28;20028;-67
2022/01/03 04:49:25;;;;;;;3.60;2.40;;;;;;;10.65;53.75;98838.41;5086430;28;20097;-67
2022/01/03 04:51:56;;;;;;;3.95;2.20;;;;;;;10.69;53.93;98817.84;5086412;28;20040;-67
2022/01/03 04:54:25;;;;;;;4.82;2.53;;;;;;;10.69;54.01;98818.69;5086462;28;20040;-67
2022/01/03 04:56:59;;;;;;;5.30;2.67;;;;;;;10.73;53.89;98824.66;5087156;28;20037;-67
2022/01/03 04:59:30;;;;;;;3.17;2.30;;;;;;;10.72;54.08;98829.09;5086582;28;20041;-67
2022/01/03 05:02:03;;;;;;;4.25;2.20;;;;;;;10.77;54.10;98837.66;5086257;28;20040;-67
2022/01/03 05:04:35;;;;;;;3.85;2.00;;;;;;;10.79;54.10;98826.94;5087038;28;20193;-67
2022/01/03 05:07:09;;;;;;;4.85;1.90;;;;;;;10.83;53.98;98815.19;5086406;28;20044;-67
2022/01/03 05:09:41;;;;;;;4.38;2.60;;;;;;;10.88;53.60;98821.91;5086056;28;20197;-67
2022/01/03 05:12:16;;;;;;;6.60;2.00;;;;;;;10.93;53.59;98849.91;5086021;28;20048;-67
2022/01/03 05:14:48;;;;;;;;;;;;;;;10.93;53.17;98818.09;5086741;28;20040;-67
2022/01/03 05:17:20;;;;;;;3.83;1.80;;;;;;;10.95;53.09;98855.97;5085934;28;19916;-67
2022/01/03 05:19:53;;;;;;;3.85;2.10;;;;;;;11.02;53.11;98842.22;5086163;28;20049;-67
2022/01/03 05:22:26;;;;;;;2.97;1.73;;;;;;;9.75;52.86;98605.81;5085767;28;20048;-67
2022/01/03 05:24:59;;;;;;;3.38;1.95;;;;;;;11.02;53.16;98809.53;5086197;28;20052;-67
2022/01/03 05:27:31;;;;;;;2.83;1.73;;;;;;;11.03;53.03;98820.03;5085857;28;20301;-67
2022/01/03 05:30:04;;;;;;;5.32;2.55;;;;;;;11.02;52.75;98838.72;5085937;28;20049;-67
2022/01/03 05:32:36;;;;;;;3.60;2.30;;;;;;;11.03;52.96;98833.31;5085737;28;20040;-67
2022/01/03 05:35:09;;;;;;;3.78;2.17;;;;;;;11.03;53.02;98822.69;5085566;28;20185;-67
2022/01/03 05:37:43;;;;;;;3.78;2.20;;;;;;;11.04;52.89;98826.19;5085671;28;20202;-68
2022/01/03 05:40:15;;;;;;;3.70;2.45;;;;;;;11.04;53.14;98819.09;5085918;28;20044;-67
2022/01/03 05:42:48;;;;;;;4.30;2.28;;;;;;;11.02;53.17;98821.00;5085911;28;20048;-67
2022/01/03 05:45:20;;;;;;;4.05;1.90;;;;;;;10.81;52.66;98809.13;5085658;28;20293;-67
2022/01/03 05:47:52;;;;;;;3.30;1.67;;;;;;;11.06;53.24;98824.31;5085580;28;20204;-66
2022/01/03 05:50:25;;;;;;;4.18;2.10;;;;;;;11.04;52.83;98820.91;5085323;28;20228;-66
2022/01/03 05:52:58;;;;;;;9.57;1.90;;;;;;;11.07;52.73;98831.31;5085518;28;20036;-66
2022/01/03 05:55:31;;;;;;;6.35;2.03;;;;;;;11.06;52.60;98832.25;5085478;28;20040;-67
2022/01/03 05:58:03;;;;;;;4.32;1.83;;;;;;;11.07;53.13;98840.13;5085433;28;20182;-67
2022/01/03 06:00:35;;;;;;;2.95;1.63;;;;;;;11.07;52.88;98824.19;5084929;28;20044;-67
2022/01/03 06:03:08;;;;;;;3.65;1.85;;;;;;;11.08;52.64;98833.00;5085613;28;20048;-67
2022/01/03 06:05:53;;;;;;;5.45;1.90;;;;;;;11.08;52.45;98839.16;5085376;28;20201;-66
2022/01/03 06:08:27;;;;;;;;;;;;;;;11.08;52.15;98833.84;5085959;28;20036;-67
2022/01/03 06:10:59;;;;;;;3.50;2.03;;;;;;;11.11;52.58;98868.13;5085297;28;19924;-67
2022/01/03 06:13:31;;;;;;;3.78;1.65;;;;;;;11.15;52.40;98851.06;5085589;28;20040;-67
2022/01/03 06:16:04;;;;;;;2.50;1.52;;;;;;;11.20;52.37;98842.81;5085586;28;20048;-67
2022/01/03 06:18:38;;;;;;;4.38;2.25;;;;;;;11.19;52.18;98860.53;5085564;28;20051;-67
2022/01/03 06:21:11;;;;;;;5.18;2.17;;;;;;;11.16;52.11;98849.28;5085074;28;20327;-67
2022/01/03 06:23:46;;;;;;;5.53;1.80;;;;;;;11.14;52.29;98848.53;5085224;28;20044;-66
2022/01/03 06:26:18;;;;;;;3.88;1.60;;;;;;;11.12;52.32;98859.22;5085168;28;20044;-67
2022/01/03 06:28:51;;;;;;;6.35;2.33;;;;;;;11.10;52.32;98876.19;5085480;28;20040;-67
2022/01/03 06:31:23;;;;;;;2.75;1.65;;;;;;;11.09;52.55;98882.44;5085026;28;20040;-67
2022/01/03 06:33:55;;;;;;;3.38;1.92;;;;;;;11.05;52.88;98878.28;5085142;28;20293;-67
2022/01/03 06:36:28;;;;;;;6.43;2.13;;;;;;;11.00;53.05;98869.78;5085070;28;20040;-67
2022/01/03 06:39:02;;;;;;;2.90;1.60;;;;;;;10.54;52.97;98806.44;5085164;28;20041;-67
2022/01/03 06:41:34;;;;;;;3.17;1.88;;;;;;;10.97;53.33;98896.50;5085289;28;20044;-66
2022/01/03 06:44:07;;;;;;;3.45;1.95;;;;;;;10.94;53.23;98905.50;5085225;28;20048;-67
2022/01/03 06:46:40;;;;;;;2.72;1.75;;;;;;;10.87;53.04;98875.03;5088223;28;20041;-67
2022/01/03 06:49:12;;;;;;;2.83;1.80;;;;;;;10.88;53.36;98909.38;5088786;28;20301;-67
2022/01/03 06:51:44;;;;;;;2.97;1.80;;;;;;;10.87;53.30;98912.13;5088721;28;20048;-67
2022/01/03 06:54:18;;;;;;;3.38;1.80;;;;;;;10.83;53.38;98921.22;5088754;28;20040;-67
2022/01/03 06:56:50;;;;;;;4.28;2.38;;;;;;;10.81;53.35;98920.47;5088861;28;20048;-67
2022/01/03 06:59:22;;;;;;;3.40;1.92;;;;;;;10.80;53.45;98924.91;5088601;28;20040;-66
2022/01/03 07:01:55;;;;;;;3.38;1.85;;;;;;;10.83;53.74;98937.97;5088761;28;20044;-67
2022/01/03 07:04:25;;;;;;;2.90;1.92;;;;;;;10.86;53.60;98936.94;5088560;28;20044;-66
2022/01/03 07:06:55;;;;;;;9.25;2.35;;;;;;;10.86;53.60;98937.78;5088704;28;20025;-67
2022/01/03 07:09:26;;;;;;;3.75;2.05;;;;;;;10.90;53.46;98941.09;5088389;28;20040;-66
2022/01/03 07:11:55;;;;;;;4.55;1.80;;;;;;;10.90;53.62;98939.31;5088590;28;20033;-67
2022/01/03 07:20:09;;;;;;;4.65;2.28;;;;;;;10.98;53.67;98962.69;5088285;28;20040;-67
2022/01/03 07:22:41;;;;;;;5.55;2.20;;;;;;;10.94;53.80;98963.81;5087778;28;20060;-67
2022/01/03 07:25:15;;;;;;;3.63;1.70;;;;;;;10.94;53.72;98973.56;5088135;28;20048;-67
2022/01/03 07:27:47;;;;;;;6.13;2.10;;;;;;;10.95;53.76;98992.03;5087787;28;20040;-67
2022/01/03 07:30:20;;;;;;;5.03;2.58;;;;;;;10.99;53.70;98975.00;5087355;28;20040;-67
2022/01/03 07:32:52;;;;;;;5.03;2.08;;;;;;;10.98;54.06;98977.75;5087742;28;20296;-67
2022/01/03 07:35:24;;;;;;;3.63;1.90;;;;;;;10.18;54.04;98844.03;5087775;28;20040;-67
2022/01/03 07:37:58;;;;;;;2.70;1.75;;;;;;;10.96;54.21;98987.59;5087776;28;20040;-67
2022/01/03 07:40:32;;;;;;;5.50;2.22;;;;;;;10.90;54.10;98980.88;5087579;28;20204;-67
2022/01/03 07:43:04;;;;;;;4.25;2.30;;;;;;;10.90;54.47;98983.53;5087876;28;20305;-67
2022/01/03 07:45:37;;;;;;;5.60;1.55;;;;;;;10.90;54.43;98981.72;5087857;28;20040;-67
2022/01/03 07:48:09;;;;;;;4.72;2.63;;;;;;;10.88;54.46;98983.63;5087848;28;20081;-67
2022/01/03 07:50:42;;;;;;;3.72;2.17;;;;;;;10.87;54.51;98979.25;5087714;28;20049;-67
2022/01/03 07:53:14;;;;;;;7.50;2.70;;;;;;;10.87;54.82;98981.91;5087777;28;20047;-67
2022/01/03 07:55:47;;;;;;;3.92;2.05;;;;;;;9.81;54.73;98800.41;5087623;28;20059;-66
2022/01/03 07:58:20;;;;;;;3.40;1.88;;;;;;;10.90;54.72;98986.16;5086464;28;20056;-67
2022/01/03 08:00:52;;;;;;;4.68;2.47;;;;;;;10.85;54.93;98975.00;5087660;28;20263;-66
2022/01/03 08:03:24;;;;;;;7.25;3.03;;;;;;;10.91;55.15;98966.66;5087316;28;20040;-67
2022/01/03 08:05:57;;;;;;;3.60;2.20;;;;;;;10.92;54.92;98968.38;5087584;28;20041;-66
2022/01/03 08:08:29;;;;;;;3.50;1.85;;;;;;;10.95;55.12;98968.19;5087448;28;20037;-66
2022/01/03 08:11:03;;;;;;;4.97;2.30;;;;;;;10.99;55.01;98963.53;5087275;28;20303;-67
2022/01/03 08:13:35;;;;;;;5.60;2.50;;;;;;;11.03;55.05;98980.94;5087294;28;20040;-67
2022/01/03 08:16:07;;;;;;;3.08;2.00;;;;;;;11.06;54.95;98964.84;5087240;28;20056;-67
2022/01/03 08:18:40;;;;;;;3.85;1.60;;;;;;;11.14;55.07;98944.84;5086884;28;20037;-67
2022/01/03 08:21:14;;;;;;;6.15;2.35;;;;;;;11.28;54.77;98959.88;5086951;28;20311;-67
2022/01/03 08:23:46;;;;;;;4.40;2.03;;;;;;;11.43;54.65;98950.06;5086981;28;20040;-67
2022/01/03 08:26:20;;;;;;;7.80;2.67;;;;;;;11.54;54.36;98945.78;5086979;28;20041;-67
2022/01/03 08:28:53;;;;;;;8.32;2.88;;;;;;;11.64;54.04;98958.44;5086950;28;20048;-67
2022/01/03 08:31:26;;;;;;;4.45;2.60;;;;;;;11.69;53.94;98959.84;5086485;28;20047;-67
2022/01/03 08:33:58;;;;;;;5.28;2.53;;;;;;;11.74;54.02;98972.81;5086612;28;20330;-67
2022/01/03 08:36:31;;;;;;;4.32;2.20;;;;;;;11.88;53.78;98975.41;5086498;28;20258;-67
2022/01/03 08:39:05;;;;;;;4.95;2.00;;;;;;;12.03;53.30;98998.31;5086204;28;20189;-66
2022/01/03 08:41:38;;;;;;;3.38;1.88;;;;;;;12.16;53.12;98985.06;5086684;28;20045;-67
2022/01/03 08:44:11;;;;;;;3.20;2.20;;;;;;;12.26;52.80;98980.00;5085916;28;20284;-67
2022/01/03 08:46:43;;;;;;;3.58;1.90;;;;;;;12.41;52.50;98985.13;5086515;28;20040;-67
2022/01/03 08:49:15;;;;;;;3.22;1.70;;;;;;;12.52;51.70;98974.59;5085439;28;20209;-67
2022/01/03 08:51:48;;;;;;;3.95;1.80;;;;;;;12.66;51.78;98973.66;5086043;28;20056;-67
2022/01/03 08:54:20;;;;;;;3.38;1.70;;;;;;;12.80;51.54;98970.88;5086463;28;20059;-66
2022/01/03 08:56:53;;;;;;;3.03;1.65;;;;;;;12.94;51.07;98953.94;5086268;28;20036;-67
2022/01/03 08:59:22;;;;;;;4.15;1.65;;;;;;;13.09;50.93;98960.84;5086346;28;20040;-67
2022/01/03 09:01:52;;;;;;;2.80;1.65;;;;;;;13.22;50.50;98944.84;5086247;28;20048;-67
2022/01/03 09:04:22;;;;;;;3.08;1.55;;;;;;;13.37;50.35;98953.50;5086204;28;20040;-67
2022/01/03 09:06:53;;;;;;;4.78;2.00;;;;;;;13.45;50.12;98953.84;5086038;28;20051;-67
2022/01/03 09:09:23;;;;;;;8.65;2.83;;;;;;;13.61;49.18;98946.41;5085914;28;20051;-67
2022/01/03 09:11:54;;;;;;;7.53;2.47;;;;;;;13.73;48.72;98950.84;5086082;28;20059;-67
2022/01/03 09:14:23;;;;;;;3.95;1.65;;;;;;;13.84;49.28;98951.84;5086030;28;20041;-66
2022/01/03 09:16:53;;;;;;;3.70;1.65;;;;;;;13.95;48.74;98947.41;5086175;28;20048;-67
2022/01/03 09:19:23;;;;;;;3.80;2.08;;;;;;;14.02;48.03;98945.97;5085686;28;20036;-67
2022/01/03 09:21:59;;;;;;;4.13;1.90;;;;;;;14.00;47.99;98942.59;5085397;28;20071;-67
2022/01/03 09:24:32;;;;;;;3.58;1.80;;;;;;;14.13;47.77;98940.69;5085716;28;20350;-67
2022/01/03 09:30:06;;;;;;;4.07;1.80;;;;;;;14.27;48.58;98934.31;5085437;28;20036;-66
2022/01/03 09:32:39;;;;;;;2.45;1.50;;;;;;;14.28;47.46;98914.69;5085638;28;20094;-66
2022/01/03 09:35:11;;;;;;;4.72;2.28;;;;;;;14.39;47.45;98927.19;5085563;28;20048;-66
2022/01/03 09:37:44;;;;;;;7.82;3.20;;;;;;;14.63;47.12;98929.81;5085603;28;20059;-67
2022/01/03 09:40:16;;;;;;;3.67;2.03;;;;;;;14.75;46.68;98918.19;5085531;28;20063;-67
2022/01/03 09:42:52;;;;;;;5.80;1.90;;;;;;;14.79;45.77;98913.44;5085749;28;20044;-67
2022/01/03 09:45:27;;;;;;;5.45;2.33;;;;;;;13.34;46.63;98660.97;5085392;28;20040;-67
2022/01/03 09:48:01;;;;;;;3.58;1.92;;;;;;;14.88;46.02;98902.03;5085825;28;20193;-66
2022/01/03 09:50:35;;;;;;;2.80;1.73;;;;;;;14.18;45.50;98784.91;5085522;28;20059;-67
2022/01/03 09:53:08;;;;;;;4.13;1.70;;;;;;;14.47;46.38;98860.78;5085455;28;20045;-67
2022/01/03 09:55:41;;;;;;;4.25;2.05;;;;;;;14.56;45.74;98913.38;5085530;28;20371;-66
2022/01/03 09:58:15;;;;;;;5.13;1.98;;;;;;;14.62;47.25;98906.78;5085342;28;20040;-68
2022/01/03 10:00:47;;;;;;;4.07;1.80;;;;;;;14.58;46.25;98911.47;5085673;28;20196;-67
2022/01/03 10:03:20;;;;;;;3.38;2.05;;;;;;;14.54;47.15;98909.97;5085365;28;20211;-67
2022/01/03 10:05:53;;;;;;;2.08;1.58;;;;;;;14.60;47.39;98922.91;5085301;28;20301;-67
2022/01/03 10:08:25;;;;;;;2.63;1.42;;;;;;;13.39;46.95;98718.22;5085292;28;20041;-68
2022/01/03 10:10:58;;;;;;;3.15;1.50;;;;;;;14.49;46.37;98913.97;5085247;28;20063;-67
2022/01/03 10:13:33;;;;;;;7.40;1.77;;;;;;;14.38;46.68;98899.66;5085365;28;20051;-67
2022/01/03 10:16:06;;;;;;;4.68;1.88;;;;;;;14.25;48.09;98912.25;5085356;28;20041;-67
2022/01/03 10:18:39;;;;;;;3.03;1.60;;;;;;;14.25;47.52;98900.75;5085046;28;20201;-67
2022/01/03 10:21:11;;;;;;;3.05;1.90;;;;;;;14.43;47.34;98894.81;5086945;28;20052;-67
2022/01/03 10:23:55;;;;;;;3.47;2.15;;;;;;;14.02;45.70;98820.75;5089206;28;20308;-67
2022/01/03 10:26:28;;;;;;;2.65;1.70;;;;;;;14.74;47.34;98881.81;5089242;28;20051;-66
2022/01/03 10:29:16;;;;;;;4.63;2.03;;;;;;;13.88;45.05;98733.09;5088793;28;20048;-66
2022/01/03 10:31:50;;;;;;;4.35;1.70;;;;;;;14.65;46.55;98911.88;5089227;28;20040;-66
2022/01/03 10:34:24;;;;;;;3.05;1.75;;;;;;;14.56;47.23;98894.72;5089118;28;20036;-66
2022/01/03 10:36:55;;;;;;;3.92;1.75;;;;;;;14.51;47.21;98918.22;5088556;28;20044;-66
2022/01/03 10:39:25;;;;;;;4.75;2.33;;;;;;;14.64;47.57;98894.16;5088809;28;20041;-66
2022/01/03 10:41:55;;;;;;;6.15;2.65;;;;;;;14.61;47.10;98878.41;5088926;28;20251;-66
2022/01/03 10:44:33;;;;;;;2.92;1.50;;;;;;;14.67;46.23;98883.25;5089035;28;20035;-66
2022/01/03 10:47:08;;;;;;;3.83;2.03;;;;;;;14.73;46.50;98896.97;5088846;28;20040;-67
2022/01/03 10:49:41;;;;;;;3.13;1.98;;;;;;;14.96;46.60;98881.78;5088472;28;20040;-67
2022/01/03 10:52:18;;;;;;;3.87;2.17;;;;;;;14.82;45.87;98887.38;5087867;28;20048;-67
2022/01/03 10:55:11;;;;;;;6.07;2.58;;;;;;;14.92;45.80;98888.34;5088757;28;20041;-66
2022/01/03 10:57:53;;;;;;;4.93;2.20;;;;;;;15.02;45.60;98905.31;5088286;28;20041;-67
2022/01/03 11:00:30;;;;;;;4.32;2.10;;;;;;;15.00;45.05;98898.41;5088656;28;20051;-67
2022/01/03 11:03:28;;;;;;;3.72;2.13;;;;;;;14.96;44.79;98878.25;5088193;28;20146;-67
2022/01/03 11:06:13;;;;;;;3.50;1.90;;;;;;;14.83;45.36;98899.75;5088553;28;20036;-66
2022/01/03 11:11:36;;;;;;;3.67;1.75;;;;;;;14.96;45.59;98894.28;5088193;28;20048;-67
2022/01/03 11:14:11;;;;;;;2.85;1.60;;;;;;;14.99;45.05;98913.56;5087962;28;20044;-66
2022/01/03 11:16:45;;;;;;;2.45;1.67;;;;;;;14.99;45.19;98894.88;5088058;28;20063;-68
2022/01/03 11:19:34;;;;;;;3.20;1.70;;;;;;;15.11;45.99;98894.84;5088139;28;20041;-67
2022/01/03 11:22:07;;;;;;;3.90;1.60;;;;;;;15.04;45.46;98903.34;5088020;28;20063;-67
2022/01/03 11:24:48;;;;;;;3.25;1.75;;;;;;;14.89;44.38;98911.75;5088003;28;20171;-67
2022/01/03 11:27:20;;;;;;;2.17;1.30;;;;;;;14.76;45.88;98930.53;5087920;28;20139;-67
2022/01/03 11:29:53;;;;;;;1.88;1.20;;;;;;;14.77;45.91;98929.56;5086850;28;20049;-67
2022/01/03 11:32:28;;;;;;;2.55;1.48;;;;;;;14.70;45.63;98933.69;5086528;28;20040;-67
2022/01/03 11:35:01;;;;;;;3.83;1.38;;;;;;;14.58;45.90;98923.97;5087579;28;20041;-67
2022/01/03 11:37:36;;;;;;;2.47;1.20;;;;;;;14.51;46.28;98926.22;5087464;28;20047;-67
2022/01/03 11:40:11;;;;;;;3.30;1.75;;;;;;;14.50;46.30;98929.00;5087423;28;20040;-67
2022/01/03 11:42:45;;;;;;;2.80;1.20;;;;;;;14.23;46.90;98894.69;5087835;28;20208;-67
2022/01/03 11:45:17;;;;;;;3.10;1.30;;;;;;;13.92;47.83;98902.34;5087657;28;20212;-67
2022/01/03 11:47:52;;;;;;;2.30;1.40;;;;;;;13.89;48.03;98904.41;5087533;28;20047;-67
2022/01/03 11:50:24;;;;;;;3.38;1.73;;;;;;;14.03;47.86;98922.84;5087369;28;20041;-67
2022/01/03 11:52:57;;;;;;;2.13;1.40;;;;;;;14.11;47.24;98923.13;5087571;28;20071;-66
2022/01/03 11:55:29;;;;;;;2.22;1.35;;;;;;;14.10;46.99;98930.25;5087167;28;20048;-67
2022/01/03 11:58:21;;;;;;;2.25;1.35;;;;;;;13.93;47.81;98920.03;5087376;28;20040;-67
2022/01/03 12:04:09;;;;;;;2.22;1.20;;;;;;;14.22;47.86;98943.63;5086874;28;20044;-68
2022/01/03 12:06:43;;;;;;;3.70;1.38;;;;;;;13.73;47.47;98875.41;5086833;28;20040;-68
2022/01/03 12:09:18;;;;;;;3.58;1.77;;;;;;;14.08;48.14;98939.34;5087382;28;20269;-68
2022/01/03 12:11:53;;;;;;;4.05;1.60;;;;;;;14.05;48.06;98919.09;5087192;28;20040;-68
2022/01/03 12:14:22;;;;;;;2.35;1.35;;;;;;;14.13;48.00;98923.84;5087234;28;20052;-68
2022/01/03 12:16:53;;;;;;;3.15;1.35;;;;;;;14.16;47.37;98920.94;5087089;28;20044;-68
2022/01/03 12:19:35;;;;;;;2.35;1.40;;;;;;;14.32;47.29;98918.81;5086960;28;20079;-68